Time;durP1;ratioP1;P1;durP2;ratioP2;P2;SDS_P1;SDS_P2;PMS_P1;PMS_P2;Temp;Humidity;BMP_temperature;BMP_pressure;BME280_temperature;BME280_humidity;BME280_pressure;Samples;Min_cycle;Max_cycle;Signal;HPM_P1;HPM_P2
2023/09/12 00:00:23;;;;;;;;;;;;;;;17.30;73.84;99718.66;4965523;28;2202;-78
2023/09/12 00:03:15;;;;;;;;;;;;;;;17.31;73.72;99719.44;4961642;28;1695;-75
2023/09/12 00:06:07;;;;;;;;;;;;;;;17.31;73.85;99716.72;4965399;28;1707;-77
2023/09/12 00:08:59;;;;;;;;;;;;;;;17.31;73.96;99714.00;4966164;28;1841;-75
2023/09/12 00:11:51;;;;;;;;;;;;;;;17.31;73.96;99714.00;4962060;28;2116;-75
2023/09/12 00:14:43;;;;;;;;;;;;;;;17.31;73.99;99714.00;4960485;28;2237;-75
2023/09/12 00:17:35;;;;;;;;;;;;;;;17.31;74.00;99716.72;4944255;28;2116;-77
2023/09/12 00:20:27;;;;;;;;;;;;;;;17.30;73.81;99715.13;4944732;28;2155;-77
2023/09/12 00:23:19;;;;;;;;;;;;;;;17.30;73.94;99712.41;4944498;28;2380;-76
2023/09/12 00:26:11;;;;;;;;;;;;;;;17.30;73.81;99715.13;4947771;28;2107;-75
2023/09/12 00:29:03;;;;;;;;;;;;;;;17.30;73.96;99717.84;4947618;28;2108;-75
2023/09/12 00:31:55;;;;;;;;;;;;;;;17.29;73.84;99719.72;4955610;28;2096;-77
2023/09/12 00:34:47;;;;;;;;;;;;;;;17.29;73.97;99722.44;4964878;28;2274;-77
2023/09/12 00:37:39;;;;;;;;;;;;;;;17.30;73.86;99724.09;4968496;28;1646;-77
2023/09/12 00:40:31;;;;;;;;;;;;;;;17.28;73.99;99718.09;4962062;28;1943;-76
2023/09/12 00:43:23;;;;;;;;;;;;;;;17.29;73.99;99711.56;4961522;28;1754;-76
2023/09/12 00:46:15;;;;;;;;;;;;;;;17.30;73.75;99712.41;4964278;28;1755;-76
2023/09/12 00:49:07;;;;;;;;;;;;;;;17.30;74.08;99713.19;4965828;28;1659;-76
2023/09/12 00:51:59;;;;;;;;;;;;;;;17.29;73.95;99702.59;4965875;28;1911;-76
2023/09/12 00:54:51;;;;;;;;;;;;;;;17.29;73.80;99703.41;4963117;28;1910;-77
2023/09/12 00:57:43;;;;;;;;;;;;;;;17.29;73.71;99702.59;4957970;28;2045;-76
2023/09/12 01:00:35;;;;;;;;;;;;;;;17.28;74.00;99693.63;4950017;28;2232;-75
2023/09/12 01:03:28;;;;;;;;;;;;;;;17.29;73.78;99694.41;4945530;28;2176;-76
2023/09/12 01:06:20;;;;;;;;;;;;;;;17.28;73.76;99692.81;4952200;28;2226;-77
2023/09/12 01:09:12;;;;;;;;;;;;;;;17.29;73.88;99691.69;4945391;28;2429;-77
2023/09/12 01:12:04;;;;;;;;;;;;;;;17.29;74.03;99692.50;4949951;28;2625;-77
2023/09/12 01:14:56;;;;;;;;;;;;;;;17.28;73.84;99701.78;4950809;28;2168;-75
2023/09/12 01:17:48;;;;;;;;;;;;;;;17.29;73.79;99702.59;4957826;28;2104;-76
2023/09/12 01:20:39;;;;;;;;;;;;;;;17.28;73.93;99698.25;4946995;28;2151;-76
2023/09/12 01:23:30;;;;;;;;;;;;;;;17.29;73.96;99702.59;4942784;28;2111;-76
2023/09/12 01:26:24;;;;;;;;;;;;;;;17.27;73.74;99692.00;4946235;28;2197;-77
2023/09/12 01:29:16;;;;;;;;;;;;;;;17.29;73.95;99700.66;4946877;28;2155;-76
2023/09/12 01:32:08;;;;;;;;;;;;;;;17.28;73.78;99707.22;4960614;28;2155;-77
2023/09/12 01:35:02;;;;;;;;;;;;;;;17.28;73.98;99720.03;4959302;28;1899;-78
2023/09/12 01:37:54;;;;;;;;;;;;;;;17.27;73.91;99713.78;4964239;28;1550;-76
2023/09/12 01:40:46;;;;;;;;;;;;;;;17.27;73.85;99713.78;4966097;28;1985;-78
2023/09/12 01:43:39;;;;;;;;;;;;;;;17.26;73.77;99723.00;4964524;28;1503;-75
2023/09/12 01:46:31;;;;;;;;;;;;;;;17.27;73.77;99713.78;4967064;28;1402;-76
2023/09/12 01:49:22;;;;;;;;;;;;;;;17.28;73.91;99714.56;4967602;28;1808;-78
2023/09/12 01:52:14;;;;;;;;;;;;;;;17.28;73.76;99709.13;4962321;28;1362;-78
2023/09/12 01:55:06;;;;;;;;;;;;;;;17.26;73.76;99712.13;4970738;28;1950;-77
2023/09/12 01:57:58;;;;;;;;;;;;;;;17.27;73.90;99713.78;4959603;28;2131;-76
2023/09/12 02:00:50;;;;;;;;;;;;;;;17.27;73.99;99724.66;4957904;28;2092;-75
2023/09/12 02:03:41;;;;;;;;;;;;;;;17.27;74.04;99715.69;4948150;28;2216;-76
2023/09/12 02:06:33;;;;;;;;;;;;;;;17.27;74.01;99718.41;4950275;28;2092;-76
2023/09/12 02:09:25;;;;;;;;;;;;;;;17.25;73.95;99727.66;4947241;28;2124;-76
2023/09/12 02:12:17;;;;;;;;;;;;;;;17.20;73.87;99713.25;4952354;28;2542;-77
2023/09/12 02:15:09;;;;;;;;;;;;;;;17.27;73.89;99732.00;4952965;28;2136;-76
2023/09/12 02:18:01;;;;;;;;;;;;;;;17.27;73.86;99718.41;4953163;28;2083;-77
2023/09/12 02:20:53;;;;;;;;;;;;;;;17.25;73.84;99711.31;4950535;28;2196;-75
2023/09/12 02:23:45;;;;;;;;;;;;;;;17.25;73.68;99705.88;4948094;28;2101;-77
2023/09/12 02:26:37;;;;;;;;;;;;;;;17.26;73.92;99703.97;4951229;28;2099;-76
2023/09/12 02:29:29;;;;;;;;;;;;;;;17.26;73.69;99706.69;4946350;28;2263;-78
2023/09/12 02:32:21;;;;;;;;;;;;;;;17.25;73.68;99703.16;4957016;28;2104;-76
2023/09/12 02:35:13;;;;;;;;;;;;;;;17.25;73.95;99699.63;4945339;28;2099;-76
2023/09/12 02:38:05;;;;;;;;;;;;;;;17.25;73.93;99696.91;4949327;28;2109;-77
2023/09/12 02:40:57;;;;;;;;;;;;;;;17.25;73.74;99707.78;4961248;28;2068;-77
2023/09/12 02:43:49;;;;;;;;;;;;;;;17.26;73.69;99714.84;4966571;28;2164;-77
2023/09/12 02:46:41;;;;;;;;;;;;;;;17.26;73.78;99709.41;4946765;28;2198;-76
2023/09/12 02:49:33;;;;;;;;;;;;;;;17.25;73.74;99707.78;4946632;28;2190;-77
2023/09/12 02:52:25;;;;;;;;;;;;;;;17.25;73.82;99710.50;4951762;28;2154;-75
2023/09/12 02:55:17;;;;;;;;;;;;;;;17.25;73.83;99713.22;4950930;28;2222;-76
2023/09/12 02:58:08;;;;;;;;;;;;;;;17.24;73.70;99722.50;4955396;28;2202;-76
2023/09/12 03:01:01;;;;;;;;;;;;;;;17.24;73.76;99726.03;4957162;28;2214;-75
2023/09/12 03:03:52;;;;;;;;;;;;;;;17.24;73.75;99731.47;4958924;28;2159;-76
2023/09/12 03:06:47;;;;;;;;;;;;;;;17.24;73.88;99722.50;4945618;28;2168;-77
2023/09/12 03:09:39;;;;;;;;;;;;;;;17.23;73.73;99724.38;4949180;28;2134;-76
2023/09/12 03:12:30;;;;;;;;;;;;;;;17.24;73.81;99722.50;4947564;28;2104;-77
2023/09/12 03:15:22;;;;;;;;;;;;;;;17.24;73.79;99717.88;4942972;28;2500;-76
2023/09/12 03:18:14;;;;;;;;;;;;;;;17.23;73.91;99713.50;4954318;28;2167;-74
2023/09/12 03:21:06;;;;;;;;;;;;;;;17.24;73.87;99711.63;4944091;28;2088;-76
2023/09/12 03:23:58;;;;;;;;;;;;;;;17.23;73.81;99721.66;4950796;28;2303;-76
2023/09/12 03:26:50;;;;;;;;;;;;;;;17.23;73.97;99709.97;4947630;28;2107;-76
2023/09/12 03:29:42;;;;;;;;;;;;;;;17.24;73.83;99711.63;4945886;28;2120;-77
2023/09/12 03:32:34;;;;;;;;;;;;;;;17.23;73.91;99713.50;4949188;28;2088;-77
2023/09/12 03:35:26;;;;;;;;;;;;;;;17.22;73.85;99713.81;4951436;28;2068;-77
2023/09/12 03:38:18;;;;;;;;;;;;;;;17.23;73.78;99710.78;4945102;28;2245;-77
2023/09/12 03:41:10;;;;;;;;;;;;;;;17.22;73.83;99706.44;4946061;28;2212;-77
2023/09/12 03:44:02;;;;;;;;;;;;;;;17.23;73.58;99696.38;4943722;28;2108;-74
2023/09/12 03:46:54;;;;;;;;;;;;;;;17.23;73.73;99699.91;4947760;28;3225;-77
2023/09/12 03:49:46;;;;;;;;;;;;;;;17.22;73.63;99692.84;4952578;28;2193;-76
2023/09/12 03:52:38;;;;;;;;;;;;;;;17.22;73.76;99703.72;4942891;28;2150;-76
2023/09/12 03:55:30;;;;;;;;;;;;;;;17.22;73.67;99700.19;4954246;28;2131;-77
2023/09/12 03:58:22;;;;;;;;;;;;;;;17.22;73.79;99700.19;4949034;28;2217;-76
2023/09/12 04:01:14;;;;;;;;;;;;;;;17.22;73.83;99702.91;4952671;28;2227;-77
2023/09/12 04:04:06;;;;;;;;;;;;;;;17.22;73.82;99706.44;4948032;28;2107;-77
2023/09/12 04:06:58;;;;;;;;;;;;;;;17.22;73.64;99700.19;4949797;28;2238;-78
2023/09/12 04:09:50;;;;;;;;;;;;;;;17.21;73.87;99699.38;4947898;28;2202;-76
2023/09/12 04:12:42;;;;;;;;;;;;;;;17.22;73.75;99694.75;4949325;28;2155;-77
2023/09/12 04:15:35;;;;;;;;;;;;;;;17.22;73.73;99686.59;4953091;28;2171;-79
2023/09/12 04:18:30;;;;;;;;;;;;;;;17.21;73.52;99690.41;4942871;28;2182;-76
2023/09/12 04:21:22;;;;;;;;;;;;;;;17.20;73.69;99686.88;4946946;28;2120;-77
2023/09/12 04:24:16;;;;;;;;;;;;;;;17.20;73.63;99684.16;4942765;28;2123;-76
2023/09/12 04:27:08;;;;;;;;;;;;;;;17.20;73.60;99681.41;4947907;28;2397;-75
2023/09/12 04:30:00;;;;;;;;;;;;;;;17.20;73.43;99688.78;4952219;28;2253;-76
2023/09/12 04:32:52;;;;;;;;;;;;;;;17.21;73.44;99693.13;4949882;28;2231;-77
2023/09/12 04:35:44;;;;;;;;;;;;;;;17.20;73.33;99686.88;4963759;28;1965;-77
2023/09/12 04:38:37;;;;;;;;;;;;;;;17.20;73.64;99686.88;4961475;28;1727;-77
2023/09/12 04:41:28;;;;;;;;;;;;;;;17.20;73.50;99686.06;4962104;28;1777;-77
2023/09/12 04:44:20;;;;;;;;;;;;;;;17.20;73.41;99680.63;4964375;28;2143;-77
2023/09/12 04:47:15;;;;;;;;;;;;;;;17.20;73.54;99675.16;4959511;28;2601;-75
2023/09/12 04:50:07;;;;;;;;;;;;;;;17.19;73.54;99677.09;4960891;28;1699;-75
2023/09/12 04:52:58;;;;;;;;;;;;;;;17.21;73.55;99674.09;4966399;28;1792;-76
2023/09/12 04:55:50;;;;;;;;;;;;;;;17.19;73.52;99668.13;4962772;28;1964;-76
2023/09/12 04:58:42;;;;;;;;;;;;;;;17.20;73.32;99675.16;4965615;28;2161;-77
2023/09/12 05:01:34;;;;;;;;;;;;;;;17.19;73.35;99674.38;4949636;28;5359;-76
2023/09/12 05:04:25;;;;;;;;;;;;;;;17.19;73.47;99676.28;4952189;28;4305;-77
2023/09/12 05:07:17;;;;;;;;;;;;;;;17.18;73.46;99678.19;4956784;28;5000;-76
2023/09/12 05:10:09;;;;;;;;;;;;;;;17.18;73.50;99678.19;4960860;28;1651;-77
2023/09/12 05:13:01;;;;;;;;;;;;;;;17.18;73.49;99670.03;4963715;28;1711;-76
2023/09/12 05:15:53;;;;;;;;;;;;;;;17.17;73.44;99660.22;4960965;28;2540;-77
2023/09/12 05:18:44;;;;;;;;;;;;;;;17.18;73.36;99661.06;4963366;28;4493;-76
2023/09/12 05:21:36;;;;;;;;;;;;;;;17.17;73.36;99671.09;4966124;28;2033;-76
2023/09/12 05:24:28;;;;;;;;;;;;;;;17.18;73.56;99667.31;4958969;28;1721;-76
2023/09/12 05:27:20;;;;;;;;;;;;;;;17.16;73.34;99674.94;4961278;28;1747;-77
2023/09/12 05:30:12;;;;;;;;;;;;;;;17.18;73.55;99671.94;4962150;28;2111;-76
2023/09/12 05:33:03;;;;;;;;;;;;;;;17.17;73.46;99681.19;4962612;28;1781;-75
2023/09/12 05:35:55;;;;;;;;;;;;;;;17.18;73.52;99685.56;4959248;28;2143;-77
2023/09/12 05:38:46;;;;;;;;;;;;;;;17.17;73.31;99687.44;4968064;28;1834;-77
2023/09/12 05:41:38;;;;;;;;;;;;;;;17.16;73.36;99696.69;4968998;28;1984;-76
2023/09/12 05:44:30;;;;;;;;;;;;;;;17.18;73.26;99693.72;4967158;28;1963;-77
2023/09/12 05:47:22;;;;;;;;;;;;;;;17.17;73.45;99692.88;4963428;28;2057;-76
2023/09/12 05:50:14;;;;;;;;;;;;;;;17.17;73.42;99697.50;4958104;28;2092;-75
2023/09/12 05:53:06;;;;;;;;;;;;;;;17.17;73.56;99692.06;4962526;28;2330;-77
2023/09/12 05:55:58;;;;;;;;;;;;;;;17.17;73.53;99700.22;4954538;28;2148;-78
2023/09/12 05:58:50;;;;;;;;;;;;;;;17.16;73.36;99704.88;4967009;28;2080;-76
2023/09/12 06:01:42;;;;;;;;;;;;;;;17.15;73.42;99697.81;4965863;28;2120;-77
2023/09/12 06:04:33;;;;;;;;;;;;;;;17.15;73.32;99697.81;4965318;28;1982;-77
2023/09/12 06:07:25;;;;;;;;;;;;;;;17.16;73.46;99710.31;4958019;28;2297;-75
2023/09/12 06:10:17;;;;;;;;;;;;;;;17.17;73.43;99701.03;4956841;28;2103;-76
2023/09/12 06:13:09;;;;;;;;;;;;;;;17.15;73.38;99710.59;4957303;28;2297;-76
2023/09/12 06:16:01;;;;;;;;;;;;;;;17.15;73.44;99713.31;4961538;28;2072;-77
2023/09/12 06:18:54;;;;;;;;;;;;;;;17.17;73.24;99724.72;4958049;28;3148;-77
2023/09/12 06:21:45;;;;;;;;;;;;;;;17.15;73.53;99725.00;4964328;28;2095;-76
2023/09/12 06:24:39;;;;;;;;;;;;;;;17.15;73.33;99729.66;4967615;28;1819;-76
2023/09/12 06:27:31;;;;;;;;;;;;;;;17.15;73.38;99729.66;4968005;28;1782;-76
2023/09/12 06:30:22;;;;;;;;;;;;;;;17.15;73.64;99729.66;4964509;28;1994;-76
2023/09/12 06:33:14;;;;;;;;;;;;;;;17.15;73.53;99733.19;4965740;28;3598;-77
2023/09/12 06:36:06;;;;;;;;;;;;;;;17.14;73.46;99739.69;4965492;28;2123;-75
2023/09/12 06:38:58;;;;;;;;;;;;;;;17.14;73.46;99742.41;4966116;28;1934;-76
2023/09/12 06:41:50;;;;;;;;;;;;;;;17.15;73.35;99740.53;4961371;28;2548;-76
2023/09/12 06:44:42;;;;;;;;;;;;;;;17.14;73.47;99744.31;4951992;28;2183;-77
2023/09/12 06:47:34;;;;;;;;;;;;;;;17.15;73.53;99740.53;4954635;28;2196;-77
2023/09/12 06:50:26;;;;;;;;;;;;;;;17.15;73.46;99740.53;4957477;28;2126;-76
2023/09/12 06:53:18;;;;;;;;;;;;;;;17.14;73.48;99736.97;4953315;28;2120;-77
2023/09/12 06:56:10;;;;;;;;;;;;;;;17.14;73.52;99733.44;4957230;28;2095;-76
2023/09/12 06:59:02;;;;;;;;;;;;;;;17.14;73.47;99741.59;4955394;28;2270;-77
2023/09/12 07:01:54;;;;;;;;;;;;;;;17.13;73.47;99731.84;4956101;28;2317;-76
2023/09/12 07:04:45;;;;;;;;;;;;;;;17.13;73.33;99740.78;4956348;28;2163;-77
2023/09/12 07:07:36;;;;;;;;;;;;;;;17.13;73.59;99740.78;4954527;28;2119;-77
2023/09/12 07:10:28;;;;;;;;;;;;;;;17.14;73.59;99736.97;4954193;28;2168;-77
2023/09/12 07:13:20;;;;;;;;;;;;;;;17.14;73.51;99756.03;4953148;28;2155;-76
2023/09/12 07:16:12;;;;;;;;;;;;;;;17.14;73.42;99750.56;4953490;28;2152;-75
2023/09/12 07:19:04;;;;;;;;;;;;;;;17.13;73.64;99751.69;4953883;28;2422;-76
2023/09/12 07:21:56;;;;;;;;;;;;;;;17.12;73.54;99751.94;4951112;28;2061;-76
2023/09/12 07:24:48;;;;;;;;;;;;;;;17.14;73.60;99753.28;4953816;28;2093;-76
2023/09/12 07:27:40;;;;;;;;;;;;;;;17.13;73.55;99751.69;4955355;28;2050;-77
2023/09/12 07:30:32;;;;;;;;;;;;;;;17.13;73.50;99750.88;4954481;28;2038;-76
2023/09/12 07:33:24;;;;;;;;;;;;;;;17.13;73.50;99746.25;4953911;28;2115;-76
2023/09/12 07:36:16;;;;;;;;;;;;;;;17.13;73.24;99757.13;4956313;28;2117;-77
2023/09/12 07:39:09;;;;;;;;;;;;;;;17.13;73.26;99756.31;4954816;28;2096;-79
2023/09/12 07:42:00;;;;;;;;;;;;;;;17.13;73.55;99761.75;4952065;28;2191;-78
2023/09/12 07:44:52;;;;;;;;;;;;;;;17.12;73.49;99769.13;4956724;28;2105;-76
2023/09/12 07:47:43;;;;;;;;;;;;;;;17.12;73.61;99769.13;4958625;28;2068;-75
2023/09/12 07:50:38;;;;;;;;;;;;;;;17.13;73.64;99783.53;4959259;28;2002;-78
2023/09/12 07:53:29;;;;;;;;;;;;;;;17.13;73.75;99788.97;4956147;28;2129;-78
2023/09/12 07:56:20;;;;;;;;;;;;;;;17.12;73.65;99793.59;4953626;28;2264;-77
2023/09/12 07:59:14;;;;;;;;;;;;;;;17.12;73.68;99790.03;4956000;28;2041;-75
2023/09/12 08:02:05;;;;;;;;;;;;;;;17.12;73.59;99793.59;4963195;28;2433;-77
2023/09/12 08:04:57;;;;;;;;;;;;;;;17.12;73.67;99806.34;4963473;28;2007;-76
2023/09/12 08:07:49;;;;;;;;;;;;;;;17.12;73.76;99809.91;4962023;28;1500;-76
2023/09/12 08:10:42;;;;;;;;;;;;;;;17.12;73.81;99815.34;4961988;28;1481;-76
2023/09/12 08:13:33;;;;;;;;;;;;;;;17.12;73.64;99817.25;4965145;28;1828;-78
2023/09/12 08:16:25;;;;;;;;;;;;;;;17.11;73.82;99827.31;4971397;28;1895;-78
2023/09/12 08:19:18;;;;;;;;;;;;;;;17.12;73.85;99833.56;4969744;28;1517;-77
2023/09/12 08:22:09;;;;;;;;;;;;;;;17.11;73.79;99832.75;4966915;28;2093;-78
2023/09/12 08:25:01;;;;;;;;;;;;;;;17.12;73.66;99839.00;4965044;28;1714;-75
2023/09/12 08:27:53;;;;;;;;;;;;;;;17.11;73.61;99835.47;4956433;28;2074;-77
2023/09/12 08:30:46;;;;;;;;;;;;;;;17.11;73.80;99842.84;4951252;28;2089;-77
2023/09/12 08:33:37;;;;;;;;;;;;;;;17.11;73.73;99853.72;4951052;28;2062;-76
2023/09/12 08:36:29;;;;;;;;;;;;;;;17.11;73.66;99859.97;4950132;28;2035;-76
2023/09/12 08:39:21;;;;;;;;;;;;;;;17.10;73.43;99858.34;4951372;28;2013;-76
2023/09/12 08:42:13;;;;;;;;;;;;;;;17.11;73.52;99865.41;4951330;28;2317;-76
2023/09/12 08:45:05;;;;;;;;;;;;;;;17.09;73.24;99870.34;4951758;28;1990;-76
2023/09/12 08:47:57;;;;;;;;;;;;;;;17.10;73.44;99858.34;4951124;28;2036;-76
2023/09/12 08:50:50;;;;;;;;;;;;;;;17.10;73.50;99854.81;4943140;28;3368;-76
2023/09/12 08:53:42;;;;;;;;;;;;;;;17.09;73.34;99843.13;4951013;28;2333;-77
2023/09/12 08:56:33;;;;;;;;;;;;;;;17.10;73.22;99844.75;4957518;28;2145;-77
2023/09/12 08:59:25;;;;;;;;;;;;;;;17.09;73.42;99848.56;4944546;28;3888;-76
2023/09/12 09:02:17;;;;;;;;;;;;;;;17.09;73.13;99851.28;4952923;28;2293;-76
2023/09/12 09:05:10;;;;;;;;;;;;;;;17.10;73.31;99849.38;4951096;28;3133;-76
2023/09/12 09:08:04;;;;;;;;;;;;;;;17.09;73.29;99859.44;4951948;28;2347;-76
2023/09/12 09:10:57;;;;;;;;;;;;;;;17.09;73.16;99873.06;4960857;28;2023;-76
2023/09/12 09:13:49;;;;;;;;;;;;;;;17.10;73.12;99876.59;4955652;28;2027;-75
2023/09/12 09:16:40;;;;;;;;;;;;;;;17.09;73.25;99869.50;4960874;28;3186;-76
2023/09/12 09:19:32;;;;;;;;;;;;;;;17.09;73.24;99866.78;4956830;28;2717;-75
2023/09/12 09:22:24;;;;;;;;;;;;;;;17.09;73.33;99872.22;4961482;28;2433;-77
2023/09/12 09:25:17;;;;;;;;;;;;;;;17.09;73.31;99862.16;4958515;28;2250;-77
2023/09/12 09:28:08;;;;;;;;;;;;;;;17.09;73.46;99874.94;4957431;28;2366;-77
2023/09/12 09:31:01;;;;;;;;;;;;;;;17.08;73.55;99882.28;4962590;28;2159;-77
2023/09/12 09:33:52;;;;;;;;;;;;;;;17.09;73.56;99893.97;4957530;28;2310;-76
2023/09/12 09:36:44;;;;;;;;;;;;;;;17.10;73.48;99892.91;4944179;28;6603;-77
2023/09/12 09:39:36;;;;;;;;;;;;;;;17.10;73.45;99892.91;4947023;28;5571;-77
2023/09/12 09:42:28;;;;;;;;;;;;;;;17.10;73.33;99892.91;4943952;28;5382;-77
2023/09/12 09:45:20;;;;;;;;;;;;;;;17.10;73.55;99898.34;4947460;28;6807;-76
2023/09/12 09:48:13;;;;;;;;;;;;;;;17.09;73.53;99902.13;4954221;28;5103;-76
2023/09/12 09:51:04;;;;;;;;;;;;;;;17.10;73.58;99903.78;4956184;28;4647;-76
2023/09/12 09:53:58;;;;;;;;;;;;;;;17.09;73.47;99908.41;4953612;28;7240;-78
2023/09/12 09:56:49;;;;;;;;;;;;;;;17.09;73.34;99902.97;4954910;28;5381;-76
2023/09/12 09:59:42;;;;;;;;;;;;;;;17.11;73.33;99913.56;4954254;28;5022;-77
2023/09/12 10:02:33;;;;;;;;;;;;;;;17.10;73.57;99915.47;4961714;28;1691;-75
2023/09/12 10:05:24;;;;;;;;;;;;;;;17.10;73.63;99907.31;4950346;28;2745;-77
2023/09/12 10:08:17;;;;;;;;;;;;;;;17.10;73.43;99917.38;4966658;28;2110;-76
2023/09/12 10:11:08;;;;;;;;;;;;;;;17.11;73.52;99908.13;4971517;28;2463;-76
2023/09/12 10:13:59;;;;;;;;;;;;;;;17.10;73.48;99904.59;4957059;28;2234;-77
2023/09/12 10:16:52;;;;;;;;;;;;;;;17.11;73.34;99917.09;4961741;28;1939;-76
2023/09/12 10:19:43;;;;;;;;;;;;;;;17.10;73.42;99920.91;4975213;28;2119;-76
2023/09/12 10:22:35;;;;;;;;;;;;;;;17.11;73.63;99917.09;4954776;28;2676;-75
2023/09/12 10:25:27;;;;;;;;;;;;;;;17.12;73.60;99921.47;4956883;28;1761;-75
2023/09/12 10:28:19;;;;;;;;;;;;;;;17.12;73.69;99917.91;4955628;28;1698;-76
2023/09/12 10:31:12;;;;;;;;;;;;;;;17.12;73.45;99924.19;4964470;28;1736;-75
2023/09/12 10:34:04;;;;;;;;;;;;;;;17.13;73.64;99925.00;4950713;28;2150;-75
2023/09/12 10:36:55;;;;;;;;;;;;;;;17.13;73.18;99925.00;4949631;28;1898;-76
2023/09/12 10:39:47;;;;;;;;;;;;;;;17.12;73.63;99926.91;4954544;28;1701;-76
2023/09/12 10:42:39;;;;;;;;;;;;;;;17.14;73.42;99923.88;4955487;28;1772;-76
2023/09/12 10:45:31;;;;;;;;;;;;;;;17.14;73.46;99929.34;4955392;28;2073;-76
2023/09/12 10:48:23;;;;;;;;;;;;;;;17.14;73.63;99929.34;4958492;28;2250;-77
2023/09/12 10:51:15;;;;;;;;;;;;;;;17.15;73.52;99933.69;4942497;28;2054;-76
2023/09/12 10:54:08;;;;;;;;;;;;;;;17.16;65.95;99924.44;4936391;28;2718;-76
2023/09/12 10:56:59;;;;;;;;;;;;;;;17.17;68.63;99932.31;4941464;28;2480;-76
2023/09/12 10:59:51;;;;;;;;;;;;;;;17.16;69.66;99924.44;4939685;28;2333;-76
2023/09/12 11:02:43;;;;;;;;;;;;;;;17.17;70.92;99929.59;4951645;28;3992;-76
2023/09/12 11:05:35;;;;;;;;;;;;;;;17.15;71.39;99937.22;4947112;28;2163;-77
2023/09/12 11:08:28;;;;;;;;;;;;;;;17.16;71.68;99940.75;4950443;28;3946;-77
2023/09/12 11:11:21;;;;;;;;;;;;;;;17.15;71.67;99942.66;4952786;28;2250;-77
2023/09/12 11:14:12;;;;;;;;;;;;;;;17.16;72.12;99944.28;4964071;28;4296;-75
2023/09/12 11:17:03;;;;;;;;;;;;;;;17.16;72.20;99952.44;4953861;28;2564;-76
2023/09/12 11:19:55;;;;;;;;;;;;;;;17.16;72.31;99952.44;4960272;28;3915;-76
2023/09/12 11:22:47;;;;;;;;;;;;;;;17.17;72.50;99950.53;4967673;28;1650;-75
2023/09/12 11:25:39;;;;;;;;;;;;;;;17.17;72.62;99953.25;4950878;28;1866;-75
2023/09/12 11:28:32;;;;;;;;;;;;;;;17.18;72.78;99957.63;4948239;28;4067;-75
2023/09/12 11:31:23;;;;;;;;;;;;;;;17.18;72.88;99957.63;4951081;28;3668;-77
2023/09/12 11:34:14;;;;;;;;;;;;;;;17.17;72.70;99950.53;4961966;28;5235;-77
2023/09/12 11:37:06;;;;;;;;;;;;;;;17.18;72.66;99941.31;4960303;28;5138;-76
2023/09/12 11:39:58;;;;;;;;;;;;;;;17.19;73.04;99954.63;4961337;28;2147;-74
2023/09/12 11:42:50;;;;;;;;;;;;;;;17.18;72.94;99947.56;4961152;28;2195;-75
2023/09/12 11:45:41;;;;;;;;;;;;;;;17.19;72.88;99951.09;4965537;28;1710;-76
2023/09/12 11:48:32;;;;;;;;;;;;;;;17.20;73.13;99960.88;4972457;28;1551;-77
2023/09/12 11:51:26;;;;;;;;;;;;;;;17.21;73.00;99965.25;4961985;28;4781;-76
2023/09/12 11:54:18;;;;;;;;;;;;;;;17.21;72.85;99973.41;4965812;28;1591;-76
2023/09/12 11:57:09;;;;;;;;;;;;;;;17.20;72.88;99971.75;4965657;28;2145;-75
2023/09/12 12:00:01;;;;;;;;;;;;;;;17.21;73.03;99971.50;4952639;28;2137;-77
2023/09/12 12:02:53;;;;;;;;;;;;;;;17.21;73.07;99978.84;4951511;28;5682;-77
2023/09/12 12:05:44;;;;;;;;;;;;;;;17.20;73.32;99978.00;4957783;28;4356;-77
2023/09/12 12:08:37;;;;;;;;;;;;;;;17.22;73.25;99973.09;4956604;28;6173;-75
2023/09/12 12:11:29;;;;;;;;;;;;;;;17.22;73.35;99975.03;4942316;28;4249;-76
2023/09/12 12:14:21;;;;;;;;;;;;;;;16.80;73.15;99908.25;4957130;28;4174;-76
2023/09/12 12:17:14;;;;;;;;;;;;;;;17.23;73.15;99973.91;4945127;28;2228;-76
2023/09/12 12:20:09;;;;;;;;;;;;;;;17.23;73.44;99973.91;4951970;28;2286;-76
2023/09/12 12:23:01;;;;;;;;;;;;;;;17.24;73.47;99970.94;4945096;28;2238;-76
2023/09/12 12:25:54;;;;;;;;;;;;;;;17.25;73.55;99960.84;4953203;28;4705;-76
2023/09/12 12:28:45;;;;;;;;;;;;;;;17.25;73.60;99969.81;4966929;28;2267;-76
2023/09/12 12:31:37;;;;;;;;;;;;;;;17.25;73.58;99966.31;4969379;28;1834;-78
2023/09/12 12:34:30;;;;;;;;;;;;;;;17.27;73.56;99971.47;4962598;28;2355;-76
2023/09/12 12:37:22;;;;;;;;;;;;;;;17.27;73.62;99974.19;4965802;28;2885;-78
2023/09/12 12:40:13;;;;;;;;;;;;;;;17.27;73.59;99963.31;4949743;28;1626;-76
2023/09/12 12:43:06;;;;;;;;;;;;;;;17.28;73.73;99965.75;4951538;28;2341;-76
2023/09/12 12:45:58;;;;;;;;;;;;;;;17.31;73.71;99962.47;4940605;28;5000;-76
2023/09/12 12:48:50;;;;;;;;;;;;;;;17.31;73.53;99958.94;4957124;28;4434;-75
2023/09/12 12:51:42;;;;;;;;;;;;;;;17.31;73.63;99967.09;4950605;28;5366;-79
2023/09/12 12:54:34;;;;;;;;;;;;;;;17.31;73.64;99962.47;4950534;28;2322;-76
2023/09/12 12:57:25;;;;;;;;;;;;;;;17.32;73.60;99960.56;4951883;28;2383;-78
2023/09/12 13:00:17;;;;;;;;;;;;;;;17.34;73.79;99967.34;4952730;28;2439;-76
2023/09/12 13:03:09;;;;;;;;;;;;;;;17.33;73.53;99970.38;4955018;28;4927;-76
2023/09/12 13:06:01;;;;;;;;;;;;;;;17.34;73.58;99972.78;4947890;28;5173;-76
2023/09/12 13:08:54;;;;;;;;;;;;;;;17.34;73.94;99975.50;4948845;28;2207;-75
2023/09/12 13:11:45;;;;;;;;;;;;;;;17.36;73.90;99972.53;4950868;28;2221;-76
2023/09/12 13:14:38;;;;;;;;;;;;;;;17.36;73.82;99967.09;4942791;28;4601;-75
2023/09/12 13:17:29;;;;;;;;;;;;;;;17.36;73.78;99976.06;4967042;28;2152;-77
2023/09/12 13:20:21;;;;;;;;;;;;;;;17.38;73.96;99976.59;4959748;28;1400;-76
2023/09/12 13:23:14;;;;;;;;;;;;;;;17.38;73.90;99976.59;4965421;28;2269;-77
2023/09/12 13:26:06;;;;;;;;;;;;;;;17.38;73.78;99982.03;4955648;28;2352;-76
2023/09/12 13:28:58;;;;;;;;;;;;;;;17.40;73.79;99977.13;4951655;28;2224;-76
2023/09/12 13:31:49;;;;;;;;;;;;;;;17.41;74.01;99983.38;4954756;28;2181;-77
2023/09/12 13:34:42;;;;;;;;;;;;;;;17.42;74.04;99980.38;4932305;28;6224;-76
2023/09/12 13:37:33;;;;;;;;;;;;;;;17.42;74.01;99979.56;4942442;28;5588;-75
2023/09/12 13:40:25;;;;;;;;;;;;;;;17.43;74.09;99979.28;4943195;28;2479;-76
2023/09/12 13:43:17;;;;;;;;;;;;;;;17.44;74.01;99982.81;4944564;28;2432;-76
2023/09/12 13:46:10;;;;;;;;;;;;;;;17.45;74.05;99976.28;4940072;28;2397;-75
2023/09/12 13:49:03;;;;;;;;;;;;;;;17.47;74.20;99982.25;4942997;28;2360;-76
2023/09/12 13:51:56;;;;;;;;;;;;;;;17.46;74.26;99976.00;4943389;28;3833;-75
2023/09/12 13:54:48;;;;;;;;;;;;;;;17.48;74.06;99981.19;4941672;28;2473;-75
2023/09/12 13:57:40;;;;;;;;;;;;;;;17.49;74.20;99983.59;4943323;28;2323;-75
2023/09/12 14:00:32;;;;;;;;;;;;;;;17.50;74.05;99987.16;4943703;28;2506;-75
2023/09/12 14:03:24;;;;;;;;;;;;;;;17.51;74.11;99979.81;4942662;28;2331;-76
2023/09/12 14:06:16;;;;;;;;;;;;;;;17.51;74.40;99991.50;4944963;28;2385;-77
2023/09/12 14:09:08;;;;;;;;;;;;;;;17.52;74.22;99987.69;4948922;28;2427;-76
2023/09/12 14:11:59;;;;;;;;;;;;;;;17.54;74.20;99981.97;4943202;28;2298;-75
2023/09/12 14:14:52;;;;;;;;;;;;;;;17.54;74.28;99990.94;4944437;28;2347;-75
2023/09/12 14:17:43;;;;;;;;;;;;;;;17.55;74.23;99992.56;4948908;28;2289;-74
2023/09/12 14:20:36;;;;;;;;;;;;;;;17.56;74.34;99987.94;4957128;28;1705;-75
2023/09/12 14:23:28;;;;;;;;;;;;;;;17.57;74.40;99993.09;4956132;28;2306;-75
2023/09/12 14:26:19;;;;;;;;;;;;;;;17.59;74.64;99998.25;4954761;28;2330;-77
2023/09/12 14:29:12;;;;;;;;;;;;;;;17.59;74.59;99998.25;4955683;28;2146;-74
2023/09/12 14:32:04;;;;;;;;;;;;;;;17.59;74.34;99988.22;4956435;28;2179;-76
2023/09/12 14:34:57;;;;;;;;;;;;;;;17.61;74.52;99991.44;4960219;28;5133;-75
2023/09/12 14:37:49;;;;;;;;;;;;;;;17.61;74.42;99994.16;4962798;28;2063;-74
2023/09/12 14:40:40;;;;;;;;;;;;;;;17.63;74.50;99994.72;4958640;28;1633;-75
2023/09/12 14:43:32;;;;;;;;;;;;;;;17.64;74.70;99998.25;4963751;28;2026;-77
2023/09/12 14:46:24;;;;;;;;;;;;;;;17.65;74.45;99997.16;4964793;28;1633;-74
2023/09/12 14:49:16;;;;;;;;;;;;;;;17.65;74.74;99997.97;4963538;28;1623;-74
2023/09/12 14:52:09;;;;;;;;;;;;;;;17.67;74.48;100000.41;4961695;28;2003;-74
2023/09/12 14:55:01;;;;;;;;;;;;;;;17.68;74.53;100007.50;4963787;28;1855;-74
2023/09/12 14:57:54;;;;;;;;;;;;;;;17.68;74.80;100004.78;4965119;28;1950;-73
2023/09/12 15:00:45;;;;;;;;;;;;;;;17.70;74.63;99999.84;4961500;28;1867;-76
2023/09/12 15:03:38;;;;;;;;;;;;;;;17.71;74.84;100002.31;4960669;28;1894;-74
2023/09/12 15:06:32;;;;;;;;;;;;;;;17.73;74.66;100012.09;4967411;28;1722;-76